Pagrindinis puslapis
METAR-TAF:

METAR-TAF

Oro uostai :

Zonguldakas, Turkija

platuma: 41-27N, ilguma: 031-48E, Aukštis: 136 m

Dabartinis oras

Ataskaita buvo paskelbta 4 valandos ir 9 minutes, ne 13:50 UTC
Vėjas 11 kt iš Šiaurės
Temperatūra 23°C
Drėgmė 69%
Slėgis 1020 hPa
Matomumas 10 km arba daugiau
Su prošvaistėmis ne aukštis 2300 ft
Su prošvaistėmis ne aukštis 9000 ft

METAR: LTAS 151350Z 35011KT 9999 BKN023 BKN090 23/17 Q1020

Laikas: 20:59 (17:59 UTC)

Prognozė

Ataskaita buvo paskelbta 4 valandos ir 19 minutes, ne 13:40 UTC
Prognozė galioja nuo 15 metu 15 UTC su 15 metu 24 UTC
Vėjas 2 kt nuo kintamojo kryptimis
Matomumas 10 km arba daugiau
Išsisklaidę debesys ne aukštis 4000 ft
Su prošvaistėmis ne aukštis 10000 ft
Tapsmas
nuo 15 metu 16 UTC su 15 metu 18 UTC
Matomumas 10 km arba daugiau
nėra debesų žemiau 1500 m ir nėra kamuolinių lietaus debesų

TAF: LTAS 151340Z 1515/1524 VRB02KT 9999 SCT040 BKN100 BECMG 1516/1518 CAVOK

Orai ataskaitas ir orų prognozės (METAR, TAF).

turimą stotys yra geltonos ir raudonos taškus žemėlapyje.

Perkelti pele per norėdami pamatyti stoties vardą.

Tada spustelėkite, norėdami matyti oro stebėjimo ir prognozės.

Norėdami pakeisti žemėlapį: spustelėkite ant žalios mygtukų su juodo kryžiaus žemyn,; žalią mygtuką su brūkšneliu, jei norite nutolinti; arba žalių rodyklių gretimoms žemėlapius.


METAR-TAF: